Time;durP1;ratioP1;P1;durP2;ratioP2;P2;SDS_P1;SDS_P2;PMS_P1;PMS_P2;Temp;Humidity;BMP_temperature;BMP_pressure;BME280_temperature;BME280_humidity;BME280_pressure;Samples;Min_cycle;Max_cycle;Signal;HPM_P1;HPM_P2
2023/07/26 00:01:55;;;;;;;18.27;9.70;;;14.00;99.90;;;;;;5375611;23;655557;-69
2023/07/26 00:04:43;;;;;;;19.40;9.10;;;14.10;99.90;;;;;;5345040;23;656897;-69
2023/07/26 00:07:30;;;;;;;18.67;9.80;;;14.10;99.90;;;;;;5363491;23;655424;-69
2023/07/26 00:10:18;;;;;;;98.63;8.60;;;14.20;99.90;;;;;;5374379;23;656381;-69
2023/07/26 00:13:05;;;;;;;19.67;6.87;;;14.20;99.90;;;;;;5356365;23;656353;-69
2023/07/26 00:15:52;;;;;;;16.27;7.10;;;14.10;99.90;;;;;;5378573;23;657059;-69
2023/07/26 00:18:42;;;;;;;15.90;7.73;;;14.10;99.90;;;;;;5370305;23;656618;-69
2023/07/26 00:21:29;;;;;;;17.10;8.23;;;14.00;99.90;;;;;;5372911;23;656587;-69
2023/07/26 00:24:16;;;;;;;20.63;8.17;;;14.10;99.90;;;;;;5349003;23;657024;-69
2023/07/26 00:27:04;;;;;;;11.93;7.43;;;14.10;99.90;;;;;;5374377;23;657123;-69
2023/07/26 00:29:51;;;;;;;14.57;7.67;;;14.10;99.90;;;;;;5346817;23;656842;-69
2023/07/26 00:32:39;;;;;;;15.73;7.63;;;14.20;99.90;;;;;;5373778;23;657486;-69
2023/07/26 00:35:28;;;;;;;21.17;7.33;;;14.10;99.90;;;;;;5351591;23;656865;-69
2023/07/26 00:38:16;;;;;;;14.17;7.70;;;14.10;99.90;;;;;;5336437;23;656799;-69
2023/07/26 00:41:03;;;;;;;15.03;10.07;;;14.20;99.90;;;;;;5380205;23;657677;-69
2023/07/26 00:43:50;;;;;;;18.53;11.03;;;14.30;99.90;;;;;;5354324;23;657589;-69
2023/07/26 00:46:38;;;;;;;27.40;13.60;;;14.40;99.90;;;;;;5372653;23;659108;-69
2023/07/26 00:49:25;;;;;;;22.43;12.50;;;14.40;99.90;;;;;;5359593;23;658463;-69
2023/07/26 00:52:14;;;;;;;24.00;13.47;;;14.50;99.90;;;;;;5373498;23;658845;-69
2023/07/26 00:55:02;;;;;;;20.50;11.37;;;14.50;99.90;;;;;;5350543;23;657480;-69
2023/07/26 00:57:50;;;;;;;26.30;12.70;;;14.60;99.90;;;;;;5372411;23;658029;-69
2023/07/26 01:00:37;;;;;;;20.03;9.90;;;14.60;99.90;;;;;;5346634;23;658800;-69
2023/07/26 01:03:25;;;;;;;15.13;9.57;;;14.70;99.90;;;;;;5375793;23;656819;-69
2023/07/26 01:06:20;;;;;;;25.23;9.10;;;14.70;99.90;;;;;;5347535;23;658072;-69
2023/07/26 01:09:12;;;;;;;16.20;8.70;;;14.70;99.90;;;;;;5319631;23;657138;-69
2023/07/26 01:12:02;;;;;;;14.77;8.23;;;14.70;99.90;;;;;;5347475;23;656441;-69
2023/07/26 01:14:53;;;;;;;17.40;9.47;;;14.60;99.90;;;;;;5347827;23;656706;-69
2023/07/26 01:17:41;;;;;;;17.67;7.80;;;14.60;99.90;;;;;;5322198;23;656501;-69
2023/07/26 01:20:28;;;;;;;16.77;9.67;;;14.60;99.90;;;;;;5378386;23;657338;-69
2023/07/26 01:23:17;;;;;;;16.73;10.40;;;14.50;99.90;;;;;;5352738;23;656479;-69
2023/07/26 01:26:04;;;;;;;17.27;9.20;;;14.50;99.90;;;;;;5373112;23;657473;-69
2023/07/26 01:28:52;;;;;;;15.57;8.93;;;14.60;99.90;;;;;;5350556;23;656339;-69
2023/07/26 01:31:39;;;;;;;17.43;11.17;;;14.70;99.90;;;;;;5372727;23;657075;-69
2023/07/26 01:34:26;;;;;;;23.13;10.93;;;14.70;99.90;;;;;;5351534;23;657396;-69
2023/07/26 01:37:14;;;;;;;18.30;11.23;;;14.70;99.90;;;;;;5358817;23;659014;-69
2023/07/26 01:40:03;;;;;;;22.53;10.43;;;14.70;99.90;;;;;;5349745;23;657414;-69
2023/07/26 01:42:50;;;;;;;19.77;10.73;;;14.70;99.90;;;;;;5360607;23;657553;-69
2023/07/26 01:45:38;;;;;;;16.03;10.07;;;14.70;99.90;;;;;;5373501;23;658734;-69
2023/07/26 01:48:25;;;;;;;19.50;10.53;;;14.70;99.90;;;;;;5364339;23;657605;-69
2023/07/26 01:51:13;;;;;;;14.47;10.00;;;14.70;99.90;;;;;;5378642;23;657485;-69
2023/07/26 01:54:01;;;;;;;18.83;9.50;;;14.70;99.90;;;;;;5362631;23;658097;-69
2023/07/26 01:56:49;;;;;;;15.93;9.97;;;14.70;99.90;;;;;;5374714;23;658159;-69
2023/07/26 01:59:37;;;;;;;17.43;9.77;;;14.70;99.90;;;;;;5352292;23;657749;-69
2023/07/26 02:02:24;;;;;;;23.40;9.87;;;14.80;99.90;;;;;;5373773;23;656688;-69
2023/07/26 02:05:11;;;;;;;15.98;9.80;;;14.80;99.90;;;;;;5352226;23;656702;-69
2023/07/26 02:07:59;;;;;;;20.13;10.03;;;14.80;99.90;;;;;;5374806;23;656571;-69
2023/07/26 02:10:46;;;;;;;19.77;9.67;;;14.70;99.90;;;;;;5349796;23;657424;-69
2023/07/26 02:13:35;;;;;;;23.20;10.43;;;14.70;99.90;;;;;;5373365;23;657096;-69
2023/07/26 02:16:22;;;;;;;18.07;9.73;;;14.70;99.90;;;;;;5345378;23;659044;-69
2023/07/26 02:19:09;;;;;;;18.37;10.07;;;14.80;99.90;;;;;;5375106;23;656655;-69
2023/07/26 02:21:57;;;;;;;18.97;10.90;;;14.80;99.90;;;;;;5350644;23;658150;-69
2023/07/26 02:24:44;;;;;;;25.70;11.03;;;14.80;99.90;;;;;;5371434;23;657551;-69
2023/07/26 02:27:31;;;;;;;26.15;11.07;;;14.80;99.90;;;;;;5349833;23;657518;-69
2023/07/26 02:30:20;;;;;;;23.90;11.40;;;14.80;99.90;;;;;;5373819;23;657816;-69
2023/07/26 02:33:07;;;;;;;25.20;10.83;;;14.80;99.90;;;;;;5349494;23;659330;-69
2023/07/26 02:35:59;;;;;;;33.47;10.50;;;14.70;99.90;;;;;;5369674;23;657649;-69
2023/07/26 02:38:46;;;;;;;29.60;11.23;;;14.60;99.90;;;;;;5346477;23;658232;-69
2023/07/26 02:41:34;;;;;;;25.17;12.37;;;14.70;99.90;;;;;;5377705;23;658583;-69
2023/07/26 02:44:21;;;;;;;24.10;11.93;;;14.70;99.90;;;;;;5349478;23;657628;-69
2023/07/26 02:47:10;;;;;;;26.20;11.43;;;14.70;99.90;;;;;;5372586;23;659025;-69
2023/07/26 02:49:57;;;;;;;26.50;11.33;;;14.70;99.90;;;;;;5345108;23;658212;-69
2023/07/26 02:52:44;;;;;;;27.97;11.93;;;14.80;99.90;;;;;;5372453;23;657891;-69
2023/07/26 02:55:32;;;;;;;29.10;12.90;;;14.80;99.90;;;;;;5344134;23;658571;-69
2023/07/26 02:58:19;;;;;;;37.70;12.53;;;14.80;99.90;;;;;;5372404;23;657179;-69
2023/07/26 03:01:06;;;;;;;23.73;10.90;;;14.80;99.90;;;;;;5345567;23;657572;-69
2023/07/26 03:03:55;;;;;;;29.30;12.37;;;14.70;99.90;;;;;;5372786;23;658526;-69
2023/07/26 03:06:43;;;;;;;27.40;13.13;;;14.70;99.90;;;;;;5344629;23;658312;-69
2023/07/26 03:09:30;;;;;;;25.87;13.00;;;14.80;99.90;;;;;;5363338;23;657892;-69
2023/07/26 03:12:18;;;;;;;23.97;12.77;;;14.70;99.90;;;;;;5371350;23;658947;-69
2023/07/26 03:15:06;;;;;;;32.80;14.77;;;14.80;99.90;;;;;;5358459;23;658212;-69
2023/07/26 03:17:54;;;;;;;28.33;12.83;;;14.70;99.90;;;;;;5377330;23;659346;-69
2023/07/26 03:20:45;;;;;;;22.83;11.83;;;14.70;99.90;;;;;;5349532;23;657304;-69
2023/07/26 03:23:34;;;;;;;35.57;13.67;;;14.80;99.90;;;;;;5344961;23;658009;-69
2023/07/26 03:26:21;;;;;;;49.63;15.20;;;14.80;99.90;;;;;;5347156;23;657957;-69
2023/07/26 03:29:08;;;;;;;61.97;15.17;;;14.70;99.90;;;;;;5371605;23;658385;-69
2023/07/26 03:31:56;;;;;;;90.20;15.97;;;14.80;99.90;;;;;;5349737;23;657398;-69
2023/07/26 03:34:43;;;;;;;75.63;16.43;;;14.70;99.90;;;;;;5377323;23;658232;-69
2023/07/26 03:37:32;;;;;;;93.83;16.57;;;14.80;99.90;;;;;;5348795;23;657315;-69
2023/07/26 03:40:19;;;;;;;251.77;15.57;;;14.90;99.90;;;;;;5372405;23;657152;-69
2023/07/26 03:43:07;;;;;;;190.13;15.43;;;15.00;99.90;;;;;;5348033;23;660576;-69
2023/07/26 03:45:54;;;;;;;133.80;17.90;;;15.10;99.90;;;;;;5371189;23;658497;-71
2023/07/26 03:48:41;;;;;;;152.83;17.20;;;15.20;99.90;;;;;;5345260;23;658410;-69
2023/07/26 03:51:29;;;;;;;126.13;16.83;;;15.30;99.90;;;;;;5371233;23;659264;-69
2023/07/26 03:54:18;;;;;;;347.90;17.57;;;15.40;99.90;;;;;;5348312;23;658544;-69
2023/07/26 03:57:07;;;;;;;404.63;17.20;;;15.40;99.90;;;;;;5360351;23;658958;-70
2023/07/26 03:59:54;;;;;;;440.13;17.30;;;15.40;99.90;;;;;;5377227;23;658444;-69
2023/07/26 04:02:41;;;;;;;285.63;14.57;;;15.50;99.90;;;;;;5349376;23;658768;-69
2023/07/26 04:05:28;;;;;;;397.47;18.47;;;15.50;99.90;;;;;;5372621;23;659153;-69
2023/07/26 04:08:16;;;;;;;432.40;19.43;;;15.40;99.90;;;;;;5348834;23;658659;-69
2023/07/26 04:11:05;;;;;;;449.83;19.47;;;15.50;99.90;;;;;;5371297;23;658933;-69
2023/07/26 04:13:52;;;;;;;417.83;19.53;;;15.50;99.90;;;;;;5343389;23;659210;-69
2023/07/26 04:16:39;;;;;;;124.60;21.37;;;15.50;99.90;;;;;;5372427;23;659347;-69
2023/07/26 04:19:27;;;;;;;373.30;22.97;;;15.50;99.90;;;;;;5343347;23;660152;-69
2023/07/26 04:22:14;;;;;;;402.57;23.10;;;15.60;99.90;;;;;;5371140;23;659468;-69
2023/07/26 04:25:02;;;;;;;260.83;21.10;;;15.60;99.90;;;;;;5343613;23;659038;-69
2023/07/26 04:27:50;;;;;;;355.50;21.73;;;15.60;99.90;;;;;;5368269;23;657934;-69
2023/07/26 04:30:38;;;;;;;351.20;21.63;;;15.70;99.90;;;;;;5340253;23;659539;-69
2023/07/26 04:33:25;;;;;;;340.73;21.07;;;15.80;99.90;;;;;;5358894;23;658478;-69
2023/07/26 04:36:13;;;;;;;130.97;19.60;;;15.80;99.90;;;;;;5371520;23;659819;-69
2023/07/26 04:39:00;;;;;;;227.93;21.17;;;15.90;99.90;;;;;;5362889;23;658699;-69
2023/07/26 04:41:48;;;;;;;344.97;21.17;;;15.90;99.90;;;;;;5371645;23;659590;-70
2023/07/26 04:44:38;;;;;;;97.33;19.00;;;15.90;99.90;;;;;;5361429;23;658691;-69
2023/07/26 04:47:25;;;;;;;61.63;19.33;;;15.90;99.90;;;;;;5365272;23;657861;-69
2023/07/26 04:50:13;;;;;;;53.23;19.80;;;16.00;99.90;;;;;;5376651;23;658562;-70
2023/07/26 04:53:00;;;;;;;50.33;19.33;;;16.00;99.90;;;;;;5360927;23;657925;-70
2023/07/26 04:55:50;;;;;;;57.70;20.20;;;15.90;99.90;;;;;;5372658;23;658914;-70
2023/07/26 04:58:38;;;;;;;61.47;19.17;;;15.90;99.90;;;;;;5344498;23;658126;-70
2023/07/26 05:01:27;;;;;;;48.30;18.40;;;15.90;99.90;;;;;;5361668;23;657606;-69
2023/07/26 05:04:14;;;;;;;43.67;19.03;;;16.00;99.90;;;;;;5370313;23;657780;-70
2023/07/26 05:07:01;;;;;;;47.77;19.00;;;16.00;99.90;;;;;;5346824;23;657688;-70
2023/07/26 05:09:49;;;;;;;41.83;19.03;;;16.10;99.90;;;;;;5371763;23;658045;-70
2023/07/26 05:12:36;;;;;;;46.87;20.03;;;16.20;99.90;;;;;;5348977;23;657632;-70
2023/07/26 05:15:23;;;;;;;43.37;19.47;;;16.40;99.90;;;;;;5371663;23;658810;-70
2023/07/26 05:18:14;;;;;;;42.50;20.00;;;16.40;99.90;;;;;;5348743;23;657778;-70
2023/07/26 05:21:01;;;;;;;39.63;19.40;;;16.50;99.90;;;;;;5350039;23;657913;-70
2023/07/26 05:23:49;;;;;;;42.70;19.53;;;16.60;99.90;;;;;;5371254;23;657626;-69
2023/07/26 05:26:37;;;;;;;35.17;18.57;;;16.60;99.90;;;;;;5350666;23;657552;-69
2023/07/26 05:29:24;;;;;;;35.83;19.13;;;16.70;99.90;;;;;;5373344;23;657612;-69
2023/07/26 05:32:12;;;;;;;36.23;18.07;;;16.80;99.90;;;;;;5351572;23;658139;-69
2023/07/26 05:35:01;;;;;;;35.67;17.50;;;16.90;99.90;;;;;;5374275;23;657502;-69
2023/07/26 05:37:50;;;;;;;28.87;16.03;;;16.80;99.90;;;;;;5345548;23;658934;-69
2023/07/26 05:40:37;;;;;;;30.47;15.10;;;16.90;99.90;;;;;;5345395;23;658309;-69
2023/07/26 05:43:24;;;;;;;24.27;14.17;;;16.80;99.90;;;;;;5372969;23;657598;-69
2023/07/26 05:46:12;;;;;;;27.43;15.13;;;16.80;99.90;;;;;;5344725;23;658919;-69
2023/07/26 05:48:59;;;;;;;27.23;14.43;;;16.80;99.90;;;;;;5373113;23;657247;-69
2023/07/26 05:51:48;;;;;;;29.07;15.17;;;16.90;99.90;;;;;;5348039;23;658143;-69
2023/07/26 05:54:35;;;;;;;25.57;14.73;;;17.00;99.90;;;;;;5350219;23;657698;-69
2023/07/26 05:57:23;;;;;;;29.40;17.00;;;17.00;99.90;;;;;;5373067;23;658438;-69
2023/07/26 06:00:13;;;;;;;35.90;18.50;;;17.00;99.90;;;;;;5364774;23;657779;-69
2023/07/26 06:03:01;;;;;;;30.73;17.27;;;17.10;99.90;;;;;;5349900;23;658218;-69
2023/07/26 06:05:48;;;;;;;32.77;17.43;;;17.00;99.90;;;;;;5378092;23;658746;-68
2023/07/26 06:08:37;;;;;;;30.27;18.27;;;16.80;99.90;;;;;;5350457;23;657650;-69
2023/07/26 06:11:24;;;;;;;40.50;18.93;;;16.90;99.90;;;;;;5371289;23;657089;-69
2023/07/26 06:14:11;;;;;;;34.87;19.13;;;16.80;99.90;;;;;;5349872;23;658278;-69
2023/07/26 06:16:59;;;;;;;37.23;19.13;;;16.70;99.90;;;;;;5373333;23;658380;-70
2023/07/26 06:19:46;;;;;;;38.63;21.00;;;16.70;99.90;;;;;;5349767;23;657680;-69
2023/07/26 06:22:34;;;;;;;45.30;20.83;;;16.70;99.90;;;;;;5372397;23;658601;-70
2023/07/26 06:25:22;;;;;;;51.33;25.00;;;16.60;99.90;;;;;;5349361;23;657866;-69
2023/07/26 06:28:10;;;;;;;52.97;22.60;;;16.60;99.90;;;;;;5367351;23;657973;-69
2023/07/26 06:30:58;;;;;;;48.27;23.57;;;16.70;99.90;;;;;;5373015;23;658864;-70
2023/07/26 06:33:45;;;;;;;50.83;23.57;;;16.70;99.90;;;;;;5351613;23;657700;-70
2023/07/26 06:36:33;;;;;;;46.10;22.73;;;16.60;99.90;;;;;;5371857;23;658433;-73
2023/07/26 06:39:20;;;;;;;49.10;23.70;;;16.60;99.90;;;;;;5328572;23;657879;-70
2023/07/26 06:42:09;;;;;;;53.53;24.47;;;16.50;99.90;;;;;;5349073;23;658692;-72
2023/07/26 06:44:57;;;;;;;52.73;24.03;;;16.50;99.90;;;;;;5326295;23;657935;-70
2023/07/26 06:47:44;;;;;;;52.63;23.57;;;16.60;99.90;;;;;;5347056;23;656991;-71
2023/07/26 06:50:31;;;;;;;48.30;23.83;;;16.70;99.90;;;;;;5324652;23;657716;-71
2023/07/26 06:53:19;;;;;;;45.37;21.00;;;16.70;99.90;;;;;;5346517;23;658844;-70
2023/07/26 06:56:06;;;;;;;49.47;23.63;;;16.70;99.90;;;;;;5323283;23;659005;-71
2023/07/26 06:58:55;;;;;;;49.27;22.80;;;16.70;99.90;;;;;;5344592;23;659296;-72
2023/07/26 07:01:42;;;;;;;45.07;21.70;;;16.70;99.90;;;;;;5316609;23;658568;-71
2023/07/26 07:04:30;;;;;;;43.13;21.00;;;16.70;99.90;;;;;;5345462;23;657892;-71
2023/07/26 07:07:17;;;;;;;40.90;20.57;;;16.60;99.90;;;;;;5317530;23;658292;-72
2023/07/26 07:10:05;;;;;;;40.60;21.37;;;16.60;99.90;;;;;;5350866;23;658291;-72
2023/07/26 07:12:53;;;;;;;46.40;21.33;;;16.60;99.90;;;;;;5317187;23;658184;-71
2023/07/26 07:15:42;;;;;;;41.27;20.33;;;16.50;99.90;;;;;;5334883;23;657124;-71
2023/07/26 07:18:30;;;;;;;47.03;22.07;;;16.40;99.90;;;;;;5345670;23;657908;-71
2023/07/26 07:21:17;;;;;;;41.03;21.03;;;16.30;99.90;;;;;;5318191;23;659086;-70
2023/07/26 07:24:05;;;;;;;41.77;20.50;;;16.40;99.90;;;;;;5342563;23;657543;-71
2023/07/26 07:26:52;;;;;;;36.20;17.27;;;16.30;99.90;;;;;;5323513;23;658155;-71
2023/07/26 07:29:40;;;;;;;33.07;17.07;;;16.30;99.90;;;;;;5346388;23;657377;-71
2023/07/26 07:32:29;;;;;;;33.00;16.50;;;16.20;99.90;;;;;;5322787;23;657992;-72
2023/07/26 07:35:16;;;;;;;29.83;14.23;;;16.10;99.90;;;;;;5322695;23;657870;-72
2023/07/26 07:38:04;;;;;;;25.40;12.87;;;16.10;99.90;;;;;;5361492;23;657699;-71
2023/07/26 07:40:51;;;;;;;16.37;8.53;;;16.00;99.90;;;;;;5346984;23;657401;-70
2023/07/26 07:43:39;;;;;;;10.63;7.07;;;15.80;99.90;;;;;;5371272;23;658203;-71
2023/07/26 07:46:28;;;;;;;11.40;6.57;;;15.70;99.90;;;;;;5347435;23;656824;-71
2023/07/26 07:49:17;;;;;;;9.83;6.37;;;15.50;99.90;;;;;;5347281;23;657092;-72
2023/07/26 07:52:05;;;;;;;11.97;6.33;;;15.40;99.90;;;;;;5378042;23;656198;-71
2023/07/26 07:54:53;;;;;;;10.80;6.10;;;15.30;99.90;;;;;;5343865;23;657390;-71
2023/07/26 07:57:41;;;;;;;13.47;6.20;;;15.30;99.90;;;;;;5361891;23;656798;-71
2023/07/26 08:00:29;;;;;;;10.43;6.20;;;15.20;99.90;;;;;;5370370;23;656373;-70
2023/07/26 08:03:16;;;;;;;13.17;6.40;;;15.30;99.90;;;;;;5347927;23;656731;-70
2023/07/26 08:06:05;;;;;;;11.83;6.33;;;15.30;99.90;;;;;;5371378;23;658302;-70
2023/07/26 08:08:52;;;;;;;10.30;6.10;;;15.20;99.90;;;;;;5343020;23;657558;-70
2023/07/26 08:11:39;;;;;;;9.60;6.57;;;15.30;99.90;;;;;;5370979;23;657314;-70
2023/07/26 08:14:27;;;;;;;8.27;6.73;;;15.20;99.90;;;;;;5345355;23;655466;-70
2023/07/26 08:17:14;;;;;;;9.45;6.55;;;15.20;99.90;;;;;;5372460;23;656142;-70
2023/07/26 08:20:02;;;;;;;11.37;6.93;;;15.20;99.90;;;;;;5348660;23;655588;-70
2023/07/26 08:22:51;;;;;;;11.80;6.60;;;15.10;99.90;;;;;;5370939;23;657015;-70
2023/07/26 08:25:38;;;;;;;8.60;6.57;;;15.30;99.90;;;;;;5344212;23;658094;-71
2023/07/26 08:28:26;;;;;;;10.13;7.20;;;15.20;99.90;;;;;;5350352;23;655544;-71
2023/07/26 08:31:13;;;;;;;8.90;6.53;;;15.30;99.90;;;;;;5375474;23;656630;-71
2023/07/26 08:34:00;;;;;;;9.67;6.93;;;15.40;99.90;;;;;;5350443;23;655517;-70
2023/07/26 08:36:48;;;;;;;9.17;6.67;;;15.50;99.90;;;;;;5377549;23;656232;-70
2023/07/26 08:39:38;;;;;;;9.23;6.70;;;15.50;99.90;;;;;;5348294;23;655709;-70
2023/07/26 08:42:26;;;;;;;10.60;6.90;;;15.50;99.90;;;;;;5353674;23;655705;-70
2023/07/26 08:45:13;;;;;;;17.45;6.93;;;15.50;99.90;;;;;;5372882;23;658090;-70
2023/07/26 08:48:01;;;;;;;9.43;6.60;;;15.60;99.90;;;;;;5348332;23;656965;-70
2023/07/26 08:50:48;;;;;;;10.97;6.77;;;15.50;99.90;;;;;;5378378;23;655999;-70
2023/07/26 08:53:36;;;;;;;10.47;7.23;;;15.50;99.90;;;;;;5348841;23;656851;-70
2023/07/26 08:56:25;;;;;;;13.10;8.10;;;15.60;99.90;;;;;;5377662;23;657244;-70
2023/07/26 08:59:13;;;;;;;13.60;8.83;;;15.60;99.90;;;;;;5344382;23;657822;-70
2023/07/26 09:02:00;;;;;;;13.20;9.00;;;15.50;99.90;;;;;;5364914;23;656420;-70
2023/07/26 09:04:48;;;;;;;15.40;10.50;;;15.50;99.90;;;;;;5373441;23;657073;-70
2023/07/26 09:07:35;;;;;;;13.20;11.20;;;15.40;99.90;;;;;;5354298;23;657486;-70
2023/07/26 09:10:26;;;;;;;14.77;11.17;;;15.40;99.90;;;;;;5371670;23;658306;-70
2023/07/26 09:13:16;;;;;;;14.50;11.03;;;15.00;99.90;;;;;;5343326;23;658026;-70
2023/07/26 09:16:03;;;;;;;13.63;9.40;;;14.90;99.90;;;;;;5348581;23;658198;-70
2023/07/26 09:18:58;;;;;;;10.97;9.37;;;14.90;99.90;;;;;;5349045;23;656532;-70
2023/07/26 09:21:45;;;;;;;9.67;8.67;;;14.80;99.90;;;;;;5350318;23;656459;-70
2023/07/26 09:24:34;;;;;;;11.30;9.00;;;14.80;99.90;;;;;;5373998;23;656138;-71
2023/07/26 09:27:21;;;;;;;9.97;8.97;;;14.80;99.90;;;;;;5349108;23;656454;-71
2023/07/26 09:30:10;;;;;;;11.67;8.87;;;14.70;99.90;;;;;;5375414;23;656253;-70
2023/07/26 09:32:58;;;;;;;10.50;8.40;;;14.70;99.90;;;;;;5345189;23;657408;-70
2023/07/26 09:35:46;;;;;;;9.40;7.87;;;14.60;99.90;;;;;;5355877;23;656585;-70
2023/07/26 09:38:34;;;;;;;8.53;7.47;;;14.60;99.90;;;;;;5374199;23;655876;-71
2023/07/26 09:41:22;;;;;;;8.10;7.30;;;14.60;99.90;;;;;;5352095;23;655484;-71
2023/07/26 09:44:14;;;;;;;8.40;7.23;;;14.70;99.90;;;;;;5374631;23;655764;-71
2023/07/26 09:47:03;;;;;;;7.70;6.80;;;14.70;99.90;;;;;;5321318;23;656152;-71
2023/07/26 09:49:51;;;;;;;7.43;6.37;;;14.60;99.90;;;;;;5351521;23;655846;-71
2023/07/26 09:52:39;;;;;;;8.97;7.00;;;14.70;99.90;;;;;;5374966;23;656544;-71
2023/07/26 09:55:27;;;;;;;9.10;7.03;;;14.50;99.90;;;;;;5349711;23;655161;-71
2023/07/26 09:58:14;;;;;;;8.33;7.00;;;14.50;99.90;;;;;;5373500;23;655052;-71
2023/07/26 10:01:02;;;;;;;8.27;7.37;;;14.50;99.90;;;;;;5351167;23;655684;-71
2023/07/26 10:03:52;;;;;;;9.37;7.13;;;14.50;99.90;;;;;;5380215;23;656004;-71
2023/07/26 10:06:40;;;;;;;7.13;6.37;;;14.40;99.90;;;;;;5346756;23;655423;-71
2023/07/26 10:09:27;;;;;;;7.40;5.90;;;14.50;99.90;;;;;;5345583;23;657224;-71
2023/07/26 10:12:15;;;;;;;8.57;5.40;;;14.40;99.90;;;;;;5377858;23;655396;-71
2023/07/26 10:15:04;;;;;;;4.77;4.00;;;14.50;99.90;;;;;;5345853;23;656133;-71
2023/07/26 10:17:52;;;;;;;4.47;3.60;;;14.40;99.90;;;;;;5350861;23;655636;-72
2023/07/26 10:20:41;;;;;;;5.07;3.80;;;14.20;99.90;;;;;;5372798;23;655245;-71
2023/07/26 10:23:29;;;;;;;4.60;4.10;;;13.90;99.90;;;;;;5345995;23;655987;-72
2023/07/26 10:26:16;;;;;;;6.80;4.07;;;13.60;99.90;;;;;;5351225;23;655321;-71
2023/07/26 10:29:04;;;;;;;5.90;4.20;;;13.50;99.90;;;;;;5374722;23;655538;-71
2023/07/26 10:32:00;;;;;;;5.23;4.00;;;13.30;99.90;;;;;;5350666;23;656118;-71
2023/07/26 10:34:54;;;;;;;7.70;4.70;;;13.40;99.90;;;;;;5345299;23;655724;-72
2023/07/26 10:37:43;;;;;;;8.07;4.90;;;13.40;99.90;;;;;;5344398;23;655766;-72
2023/07/26 10:40:33;;;;;;;8.43;5.00;;;13.30;99.90;;;;;;5350008;23;655496;-71
2023/07/26 10:43:39;;;;;;;7.50;5.13;;;13.40;99.90;;;;;;5352173;23;656083;-71
2023/07/26 10:46:27;;;;;;;11.03;5.80;;;13.40;99.90;;;;;;5350686;23;655169;-70
2023/07/26 10:49:18;;;;;;;8.77;5.60;;;13.30;99.90;;;;;;5371618;23;656719;-70
2023/07/26 10:52:06;;;;;;;7.73;5.27;;;13.40;99.90;;;;;;5326948;23;655828;-70
2023/07/26 10:54:55;;;;;;;7.27;5.03;;;13.40;99.90;;;;;;5373397;23;655939;-70
2023/07/26 10:57:48;;;;;;;6.67;4.77;;;13.30;99.90;;;;;;5349803;23;656095;-70
2023/07/26 11:00:37;;;;;;;9.30;4.43;;;13.30;99.90;;;;;;5321686;23;655467;-70
2023/07/26 11:03:27;;;;;;;6.97;4.70;;;13.30;99.90;;;;;;5370529;23;655067;-70
2023/07/26 11:06:15;;;;;;;8.83;4.57;;;13.20;99.90;;;;;;5345405;23;655212;-70
2023/07/26 11:09:04;;;;;;;5.87;4.10;;;13.20;99.90;;;;;;5350817;23;655950;-70
2023/07/26 11:11:57;;;;;;;8.60;4.23;;;13.20;99.90;;;;;;5350882;23;655799;-70
2023/07/26 11:14:44;;;;;;;8.93;4.33;;;13.10;99.90;;;;;;5345679;23;655915;-70
2023/07/26 11:17:31;;;;;;;7.40;4.33;;;13.20;99.90;;;;;;5349859;23;655892;-71
2023/07/26 11:20:19;;;;;;;7.93;4.37;;;13.20;99.90;;;;;;5371422;23;656075;-70
2023/07/26 11:23:18;;;;;;;7.93;4.60;;;13.10;99.90;;;;;;5350169;23;655571;-70
2023/07/26 11:26:05;;;;;;;8.03;4.27;;;13.10;99.90;;;;;;5322739;23;656340;-70
2023/07/26 11:28:58;;;;;;;7.83;4.57;;;13.20;99.90;;;;;;5373857;23;656040;-70
2023/07/26 11:31:45;;;;;;;5.60;3.47;;;13.20;99.90;;;;;;5333769;23;655689;-70
2023/07/26 11:34:33;;;;;;;6.17;3.50;;;13.20;99.90;;;;;;5373396;23;656906;-70
2023/07/26 11:37:21;;;;;;;5.82;3.00;;;13.20;99.90;;;;;;5352579;23;655862;-70
2023/07/26 11:40:10;;;;;;;5.03;2.77;;;13.30;99.90;;;;;;5378095;23;656089;-70
2023/07/26 11:42:57;;;;;;;4.15;2.90;;;13.20;99.90;;;;;;5350377;23;656509;-69
2023/07/26 11:45:47;;;;;;;6.50;2.90;;;13.00;99.90;;;;;;5371939;23;655933;-70
2023/07/26 11:48:35;;;;;;;4.63;2.40;;;12.80;99.90;;;;;;5370438;23;655690;-70
2023/07/26 11:51:22;;;;;;;2.57;2.23;;;12.70;99.90;;;;;;5345495;23;656958;-70
2023/07/26 11:54:12;;;;;;;5.97;2.07;;;12.80;99.90;;;;;;5372876;23;655405;-70
2023/07/26 11:56:59;;;;;;;3.80;2.17;;;12.80;99.90;;;;;;5348317;23;654967;-70
2023/07/26 11:59:47;;;;;;;3.20;1.67;;;12.90;99.90;;;;;;5350739;23;656104;-70
2023/07/26 12:02:36;;;;;;;3.50;2.00;;;12.80;99.90;;;;;;5373362;23;655302;-70
2023/07/26 12:05:25;;;;;;;2.90;1.90;;;12.80;99.90;;;;;;5345487;23;656235;-69
2023/07/26 12:08:13;;;;;;;2.33;2.00;;;12.80;99.90;;;;;;5350038;23;656128;-70
2023/07/26 12:11:02;;;;;;;5.60;2.00;;;12.80;99.90;;;;;;5355518;23;655183;-70
2023/07/26 12:13:50;;;;;;;3.37;2.20;;;12.90;99.90;;;;;;5372499;23;655368;-70
2023/07/26 12:16:38;;;;;;;3.73;2.00;;;12.90;99.90;;;;;;5378023;23;656029;-69
2023/07/26 12:19:27;;;;;;;2.73;1.83;;;12.90;99.90;;;;;;5365838;23;655737;-70
2023/07/26 12:22:14;;;;;;;2.83;1.63;;;12.80;99.90;;;;;;5373676;23;655601;-69
2023/07/26 12:25:02;;;;;;;2.23;1.53;;;12.80;99.90;;;;;;5345774;23;655698;-70
2023/07/26 12:27:50;;;;;;;1.80;1.53;;;12.80;99.90;;;;;;5373625;23;655888;-70
2023/07/26 12:30:37;;;;;;;4.30;1.80;;;12.70;99.90;;;;;;5351309;23;656402;-69
2023/07/26 12:33:25;;;;;;;4.37;1.90;;;12.60;99.90;;;;;;5374758;23;655743;-70
2023/07/26 12:36:14;;;;;;;2.23;1.50;;;12.80;99.90;;;;;;5353482;23;655739;-70
2023/07/26 12:39:01;;;;;;;4.17;1.80;;;12.70;99.90;;;;;;5352508;23;655545;-69
2023/07/26 12:41:49;;;;;;;2.70;1.73;;;12.80;99.90;;;;;;5374737;23;656071;-69
2023/07/26 12:44:36;;;;;;;2.37;1.93;;;12.80;99.90;;;;;;5351866;23;655750;-69
2023/07/26 12:47:23;;;;;;;3.33;2.07;;;12.80;99.90;;;;;;5379486;23;655815;-70
2023/07/26 12:50:11;;;;;;;3.67;1.83;;;12.90;99.90;;;;;;5351924;23;655542;-69
2023/07/26 12:53:00;;;;;;;4.73;2.03;;;12.90;99.90;;;;;;5375483;23;656402;-69
2023/07/26 12:55:47;;;;;;;2.93;2.20;;;12.70;99.90;;;;;;5353508;23;655964;-68
2023/07/26 12:58:34;;;;;;;3.20;2.20;;;12.70;99.90;;;;;;5377551;23;655815;-69
2023/07/26 13:01:22;;;;;;;3.53;2.00;;;12.60;99.90;;;;;;5350826;23;656007;-69
2023/07/26 13:04:09;;;;;;;2.57;2.30;;;12.60;99.90;;;;;;5375968;23;655909;-69
2023/07/26 13:06:56;;;;;;;2.53;2.20;;;12.60;99.90;;;;;;5353740;23;655806;-69
2023/07/26 13:09:45;;;;;;;5.17;2.57;;;12.60;99.90;;;;;;5376258;23;657093;-69
2023/07/26 13:12:32;;;;;;;5.77;2.90;;;12.70;99.90;;;;;;5351715;23;656062;-69
2023/07/26 13:15:19;;;;;;;4.53;2.80;;;12.70;99.90;;;;;;5376338;23;655422;-69
2023/07/26 13:18:07;;;;;;;7.07;3.63;;;12.60;99.90;;;;;;5352665;23;656420;-69
2023/07/26 13:20:54;;;;;;;8.07;4.10;;;12.50;99.90;;;;;;5376166;23;655286;-69
2023/07/26 13:23:41;;;;;;;8.50;5.13;;;12.40;99.90;;;;;;5353861;23;655263;-69
2023/07/26 13:26:30;;;;;;;9.93;5.50;;;12.40;99.90;;;;;;5376671;23;656114;-69
2023/07/26 13:29:18;;;;;;;9.83;5.30;;;12.40;99.90;;;;;;5354198;23;656594;-68
2023/07/26 13:32:06;;;;;;;9.10;5.50;;;12.60;99.90;;;;;;5364203;23;655564;-68
2023/07/26 13:34:53;;;;;;;8.77;5.10;;;12.60;99.90;;;;;;5381235;23;655540;-69
2023/07/26 13:37:41;;;;;;;10.83;5.37;;;12.60;99.90;;;;;;5353679;23;656139;-69
2023/07/26 13:40:29;;;;;;;7.77;4.67;;;12.60;99.90;;;;;;5375402;23;657087;-69
2023/07/26 13:43:17;;;;;;;7.63;4.07;;;12.70;99.90;;;;;;5354190;23;655978;-68
2023/07/26 13:46:05;;;;;;;11.67;4.67;;;12.70;99.90;;;;;;5376652;23;655408;-69
2023/07/26 13:48:52;;;;;;;7.20;3.90;;;12.70;99.90;;;;;;5347740;23;657950;-69
2023/07/26 13:51:39;;;;;;;7.20;3.78;;;12.80;99.90;;;;;;5376952;23;656366;-69
2023/07/26 13:54:27;;;;;;;5.47;3.77;;;12.70;99.90;;;;;;5354767;23;655495;-69
2023/07/26 13:57:14;;;;;;;7.40;4.13;;;12.80;99.90;;;;;;5376585;23;655636;-69
2023/07/26 14:00:03;;;;;;;9.13;3.97;;;12.70;99.90;;;;;;5354067;23;656083;-69
2023/07/26 14:02:51;;;;;;;6.50;3.53;;;12.70;99.90;;;;;;5353523;23;655561;-69
2023/07/26 14:05:38;;;;;;;6.03;3.80;;;12.60;99.90;;;;;;5375951;23;655888;-69
2023/07/26 14:08:25;;;;;;;8.60;4.33;;;12.50;99.90;;;;;;5353704;23;655433;-69
2023/07/26 14:11:13;;;;;;;8.53;4.50;;;12.50;99.90;;;;;;5376677;23;656221;-69